Brookley Field, Alabama
Current Conditions -  °F | °C
As of 10:53 PM on Tuesday 25 Nov 2014 (Local Time) from KBFM Reporting Station
Broken Clouds Broken Clouds  
Wind Chill: 11°   Ceiling: 7500
Heat Index: 11°   Visibility: 10mi
Dew Point: -1°   Wind: 17mph
Humidity: 46%   Direction: 320°NW
Pressure: 30.16"   Gusts: NA
Location:  30.641°N, 88.065°W
Report Text: KBFM 260453Z AUTO 32015KT 10SM BKN075 11/M01 A3016 RMK AO2 SLP213 T01061006
Loading
Personal Weather Stations






























Interactive Weather Map New forecast layout! Learn more

10-Day Weather Forecast

Advertisements
Track Severe Weather on mobile